Time;durP1;ratioP1;P1;durP2;ratioP2;P2;SDS_P1;SDS_P2;PMS_P1;PMS_P2;Temp;Humidity;BMP_temperature;BMP_pressure;BME280_temperature;BME280_humidity;BME280_pressure;Samples;Min_cycle;Max_cycle;Signal;HPM_P1;HPM_P2
2022/06/16 00:01:36;;;;;;;4.13;3.00;;;;;;;26.21;33.72;102045.69;5088838;28;20038;-72
2022/06/16 00:04:02;;;;;;;4.40;2.72;;;;;;;26.27;33.44;102043.59;5106585;28;20028;-72
2022/06/16 00:06:27;;;;;;;6.13;2.58;;;;;;;25.56;34.98;102051.91;5090900;28;20023;-72
2022/06/16 00:08:53;;;;;;;4.53;2.88;;;;;;;26.53;33.36;102045.63;5091220;28;20028;-71
2022/06/16 00:11:19;;;;;;;3.72;2.70;;;;;;;26.14;33.62;102044.28;5089253;28;20473;-72
2022/06/16 00:13:46;;;;;;;4.90;2.70;;;;;;;26.45;33.43;102042.53;5089857;28;20057;-72
2022/06/16 00:16:12;;;;;;;4.97;2.80;;;;;;;25.77;34.24;102046.31;5107652;28;20422;-72
2022/06/16 00:18:38;;;;;;;5.25;2.83;;;;;;;25.78;34.42;102052.56;5088067;28;20085;-72
2022/06/16 00:21:05;;;;;;;5.07;2.53;;;;;;;26.81;32.87;102053.91;5092825;28;20085;-72
2022/06/16 00:23:31;;;;;;;5.55;2.80;;;;;;;26.75;32.68;102047.94;5089280;28;20028;-72
2022/06/16 00:25:56;;;;;;;6.45;2.70;;;;;;;25.80;34.11;102056.00;5107299;28;20537;-72
2022/06/16 00:28:22;;;;;;;4.15;3.00;;;;;;;26.39;33.61;102053.59;5108226;28;20391;-72
2022/06/16 00:30:47;;;;;;;6.15;2.75;;;;;;;26.76;32.82;102051.47;5105018;28;20480;-71
2022/06/16 00:33:13;;;;;;;6.43;3.30;;;;;;;26.06;33.42;102050.09;5088331;28;20023;-72
2022/06/16 00:35:38;;;;;;;7.65;3.15;;;;;;;26.41;32.94;102051.72;5107726;28;20127;-72
2022/06/16 00:38:04;;;;;;;4.95;3.00;;;;;;;26.49;32.44;102049.44;5090856;28;20051;-72
2022/06/16 00:40:29;;;;;;;4.68;2.95;;;;;;;26.72;33.37;102052.59;5089742;28;20050;-72
2022/06/16 00:42:54;;;;;;;6.18;2.88;;;;;;;25.79;33.98;102059.63;5089434;28;20443;-72
2022/06/16 00:45:42;;;;;;;3.65;2.92;;;;;;;26.02;33.71;102061.06;5091996;28;20030;-72
2022/06/16 00:48:08;;;;;;;4.53;3.35;;;;;;;26.00;33.44;102065.63;5091277;28;20369;-72
2022/06/16 00:50:33;;;;;;;5.40;3.35;;;;;;;26.57;32.97;102067.75;5088522;28;20026;-72
2022/06/16 00:52:59;;;;;;;3.63;3.25;;;;;;;26.17;33.52;102076.28;5089848;28;20400;-72
2022/06/16 00:55:26;;;;;;;4.07;3.00;;;;;;;26.41;33.27;102079.34;5090183;28;20502;-72
2022/06/16 00:57:52;;;;;;;4.07;2.97;;;;;;;26.14;34.38;102076.44;5091872;28;20032;-72
2022/06/16 01:00:26;;;;;;;6.18;3.13;;;;;;;25.91;34.12;102072.34;5089584;28;20423;-75
2022/06/16 01:02:51;;;;;;;5.47;3.33;;;;;;;25.89;33.82;102077.78;5088990;28;20324;-72
2022/06/16 01:05:17;;;;;;;6.97;3.55;;;;;;;26.13;33.04;102080.09;5088929;28;20102;-72
2022/06/16 01:07:46;;;;;;;6.22;3.40;;;;;;;26.14;33.55;102087.16;5089061;28;20024;-72
2022/06/16 01:10:14;;;;;;;7.43;3.72;;;;;;;26.14;33.53;102086.31;5091910;28;20391;-72
2022/06/16 01:15:42;;;;;;;6.72;3.47;;;;;;;24.74;34.88;102087.38;5093530;28;20222;-72
2022/06/16 01:18:44;;;;;;;5.38;3.20;;;;;;;25.80;34.68;102088.13;5108961;28;20016;-72
2022/06/16 01:21:54;;;;;;;7.25;3.25;;;;;;;26.13;34.26;102090.81;5094492;28;20047;-72
2022/06/16 01:24:49;;;;;;;6.15;3.05;;;;;;;25.94;34.79;102084.69;5089715;28;20088;-72
2022/06/16 01:27:45;;;;;;;7.97;2.90;;;;;;;25.94;34.09;102079.34;5092320;28;20089;-71
2022/06/16 01:30:14;;;;;;;5.90;3.20;;;;;;;26.11;33.82;102090.00;5091469;27;20371;-72
2022/06/16 01:33:06;;;;;;;4.20;3.33;;;;;;;25.59;34.55;102082.16;5080320;28;20376;-72
2022/06/16 01:35:37;;;;;;;5.57;3.53;;;;;;;26.00;33.98;102089.72;5091527;28;20027;-72
2022/06/16 01:38:24;;;;;;;7.82;3.33;;;;;;;25.96;34.90;102085.50;5094903;28;20048;-72
2022/06/16 01:40:56;;;;;;;5.30;3.15;;;;;;;25.74;35.31;102089.34;5094002;28;20043;-72
2022/06/16 01:43:27;;;;;;;6.78;3.45;;;;;;;25.40;35.34;102085.78;5094912;28;20418;-72
2022/06/16 01:45:56;;;;;;;9.98;3.53;;;;;;;25.38;35.41;102093.91;5092611;28;20032;-72
2022/06/16 01:48:23;;;;;;;6.55;3.10;;;;;;;25.48;35.57;102083.56;5093093;28;20085;-71
2022/06/16 01:51:01;;;;;;;4.22;3.30;;;;;;;26.07;34.40;102092.00;5090752;28;20620;-72
2022/06/16 01:53:35;;;;;;;5.25;3.33;;;;;;;25.52;34.54;102090.50;5093046;28;20024;-72
2022/06/16 01:56:26;;;;;;;3.63;3.08;;;;;;;25.47;35.03;102086.34;5093049;28;20505;-71
2022/06/16 01:58:58;;;;;;;8.50;3.38;;;;;;;25.37;35.00;102094.00;5086343;28;20067;-72
2022/06/16 02:01:29;;;;;;;5.25;3.45;;;;;;;25.05;35.74;102101.88;5109961;28;20499;-72
2022/06/16 02:03:58;;;;;;;6.50;3.58;;;;;;;25.60;35.35;102099.94;5091925;28;20074;-72
2022/06/16 02:06:41;;;;;;;7.03;3.40;;;;;;;24.70;35.96;102101.81;5110601;28;20119;-72
2022/06/16 02:09:14;;;;;;;4.63;3.42;;;;;;;25.15;34.75;102097.75;5093168;28;20028;-72
2022/06/16 02:11:42;;;;;;;6.57;3.60;;;;;;;25.31;34.78;102102.31;5090697;28;20398;-72
2022/06/16 02:14:26;;;;;;;9.43;3.58;;;;;;;25.23;35.30;102100.03;5091598;28;20022;-72
2022/06/16 02:16:52;;;;;;;6.13;3.08;;;;;;;25.50;35.03;102104.91;5091768;28;20484;-71
2022/06/16 02:19:22;;;;;;;5.55;3.25;;;;;;;25.12;35.85;102108.63;5091971;28;20110;-72
2022/06/16 02:21:49;;;;;;;7.20;3.75;;;;;;;25.39;35.17;102109.03;5091347;28;20399;-72
2022/06/16 02:24:18;;;;;;;4.50;3.22;;;;;;;25.62;34.51;102108.75;5091737;28;20127;-72
2022/06/16 02:26:44;;;;;;;6.30;3.75;;;;;;;25.28;35.23;102097.13;5094521;28;20422;-72
2022/06/16 02:29:29;;;;;;;8.02;3.15;;;;;;;25.38;35.12;102099.25;5092424;28;20060;-72
2022/06/16 02:32:02;;;;;;;4.20;3.30;;;;;;;25.11;34.90;102109.56;5089846;28;21511;-71
2022/06/16 02:34:54;;;;;;;4.28;3.17;;;;;;;24.75;34.01;102094.44;5092941;28;20107;-72
2022/06/16 02:37:22;;;;;;;9.35;3.22;;;;;;;24.80;35.02;102103.09;5109814;28;20065;-72
2022/06/16 02:40:03;;;;;;;3.30;3.00;;;;;;;25.14;34.86;102112.09;5095918;27;20032;-72
2022/06/16 02:42:47;;;;;;;7.50;3.67;;;;;;;24.76;35.40;102117.56;5091067;28;20027;-72
2022/06/16 02:45:38;;;;;;;3.75;3.22;;;;;;;24.37;34.88;102121.22;5109141;28;20028;-72
2022/06/16 02:48:32;;;;;;;6.47;3.00;;;;;;;24.16;34.95;102123.97;5094006;28;20028;-72
2022/06/16 02:51:07;;;;;;;6.90;3.42;;;;;;;24.60;35.15;102127.25;5092774;28;20020;-72
2022/06/16 02:56:21;;;;;;;6.30;3.13;;;;;;;25.06;34.19;102130.34;5093022;28;20043;-71
2022/06/16 02:58:48;;;;;;;5.88;3.00;;;;;;;24.33;35.17;102135.66;5092354;28;20039;-72
2022/06/16 03:01:14;;;;;;;5.15;3.28;;;;;;;24.82;35.13;102143.97;5090748;28;20023;-71
2022/06/16 03:03:39;;;;;;;7.68;3.38;;;;;;;24.19;34.04;102145.22;5089397;28;20055;-72
2022/06/16 03:06:05;;;;;;;5.68;3.30;;;;;;;24.58;34.94;102146.03;5092536;28;20036;-72
2022/06/16 03:08:38;;;;;;;4.35;3.30;;;;;;;24.72;34.83;102148.06;5092117;28;20123;-72
2022/06/16 03:11:03;;;;;;;6.85;3.08;;;;;;;24.44;34.36;102137.81;5092447;28;20024;-72
2022/06/16 03:13:31;;;;;;;6.25;2.90;;;;;;;24.79;32.85;102135.28;5089034;28;20024;-71
2022/06/16 03:15:58;;;;;;;11.05;5.38;;;;;;;23.80;34.45;102142.53;5087279;28;20090;-71
2022/06/16 03:18:24;;;;;;;3.30;2.60;;;;;;;24.09;33.63;102149.22;5087159;28;20023;-71
2022/06/16 03:20:50;;;;;;;5.30;3.30;;;;;;;24.43;33.55;102147.66;5090977;28;20039;-72
2022/06/16 03:23:17;;;;;;;5.20;2.80;;;;;;;24.51;32.73;102144.59;5091976;28;20016;-72
2022/06/16 03:25:43;;;;;;;8.60;3.60;;;;;;;24.38;32.59;102157.69;5091035;28;20513;-72
2022/06/16 03:28:10;;;;;;;5.53;3.33;;;;;;;24.32;33.00;102158.00;5090653;28;20059;-72
2022/06/16 03:30:38;;;;;;;7.28;3.20;;;;;;;23.74;34.69;102153.47;5091624;28;20095;-72
2022/06/16 03:33:06;;;;;;;5.90;3.03;;;;;;;24.33;33.47;102157.03;5090403;28;20020;-72
2022/06/16 03:35:31;;;;;;;4.95;3.00;;;;;;;24.18;33.15;102148.81;5091704;28;20024;-72
2022/06/16 03:38:00;;;;;;;7.63;3.28;;;;;;;23.89;34.42;102150.13;5090667;28;20453;-72
2022/06/16 03:40:25;;;;;;;5.13;3.08;;;;;;;24.29;33.42;102145.63;5090363;28;20483;-72
2022/06/16 03:42:51;;;;;;;6.28;2.88;;;;;;;24.46;33.77;102147.50;5090708;28;20031;-72
2022/06/16 03:45:16;;;;;;;5.40;3.35;;;;;;;24.26;33.33;102147.56;5090495;28;20017;-72
2022/06/16 03:47:42;;;;;;;8.00;3.60;;;;;;;23.48;34.52;102151.03;5091028;28;20027;-71
2022/06/16 03:50:12;;;;;;;6.72;3.78;;;;;;;24.55;33.59;102152.41;5091322;28;20028;-72
2022/06/16 03:52:37;;;;;;;5.40;3.40;;;;;;;24.63;33.64;102148.50;5091449;28;20111;-72
2022/06/16 03:55:03;;;;;;;7.32;3.85;;;;;;;24.25;33.77;102159.19;5090308;28;20162;-72
2022/06/16 03:57:28;;;;;;;4.80;3.35;;;;;;;24.86;33.11;102160.75;5105212;28;20432;-72
2022/06/16 03:59:54;;;;;;;4.82;3.38;;;;;;;24.65;32.73;102165.34;5088540;28;20024;-72
2022/06/16 04:02:19;;;;;;;5.00;3.50;;;;;;;24.52;33.31;102173.94;5088902;28;20256;-72
2022/06/16 04:04:45;;;;;;;5.35;3.33;;;;;;;24.33;33.92;102183.75;5090336;28;20024;-72
2022/06/16 04:07:10;;;;;;;4.13;3.20;;;;;;;24.84;34.14;102179.56;5090837;28;20099;-72
2022/06/16 04:09:36;;;;;;;4.93;3.13;;;;;;;24.66;33.24;102185.78;5089633;28;20341;-72
2022/06/16 04:12:02;;;;;;;7.13;3.20;;;;;;;24.75;33.33;102190.69;5091282;28;20095;-72
2022/06/16 04:14:27;;;;;;;5.28;3.45;;;;;;;25.39;32.76;102185.78;5092537;28;20023;-72
2022/06/16 04:16:54;;;;;;;6.90;3.85;;;;;;;24.58;32.83;102204.84;5086318;28;20020;-72
2022/06/16 04:19:21;;;;;;;7.40;3.72;;;;;;;24.94;32.72;102195.16;5090296;28;20550;-71
2022/06/16 04:21:48;;;;;;;4.82;3.00;;;;;;;25.20;32.17;102202.72;5089748;28;20047;-72
2022/06/16 04:24:14;;;;;;;4.28;3.13;;;;;;;24.92;32.01;102207.72;5091394;28;20028;-71
2022/06/16 04:26:40;;;;;;;3.25;2.92;;;;;;;24.91;33.03;102206.84;5089371;28;20028;-72
2022/06/16 04:29:09;;;;;;;6.95;3.53;;;;;;;25.37;31.25;102203.72;5090158;28;20023;-72
2022/06/16 04:31:35;;;;;;;3.47;3.00;;;;;;;25.42;31.35;102207.03;5089918;28;20028;-71
2022/06/16 04:34:00;;;;;;;8.75;3.38;;;;;;;24.79;32.34;102221.69;5090661;28;20031;-72
2022/06/16 04:36:26;;;;;;;5.40;2.95;;;;;;;25.19;31.55;102226.88;5090740;28;20027;-72
2022/06/16 04:38:53;;;;;;;4.05;2.67;;;;;;;24.65;31.77;102230.38;5089158;28;20040;-72
2022/06/16 04:41:18;;;;;;;3.72;2.40;;;;;;;24.47;31.30;102237.41;5090374;28;20031;-71
2022/06/16 04:43:44;;;;;;;5.30;3.03;;;;;;;25.30;31.78;102245.06;5093503;28;20428;-72
2022/06/16 04:46:13;;;;;;;3.72;2.67;;;;;;;26.44;30.08;102240.97;5096418;28;20049;-72
2022/06/16 04:48:38;;;;;;;6.03;2.63;;;;;;;26.97;29.76;102236.22;5095932;28;20039;-72
2022/06/16 04:51:03;;;;;;;5.90;2.70;;;;;;;27.82;27.78;102245.56;5097278;28;20024;-72
2022/06/16 04:53:30;;;;;;;5.65;2.40;;;;;;;29.34;26.23;102247.56;5096939;28;20162;-72
2022/06/16 04:55:57;;;;;;;5.38;2.13;;;;;;;29.91;25.74;102245.47;5098156;28;20470;-73
2022/06/16 04:58:24;;;;;;;4.30;2.22;;;;;;;30.87;24.05;102253.00;5094407;28;20043;-72
2022/06/16 05:00:51;;;;;;;3.30;2.13;;;;;;;31.26;24.39;102261.78;5093502;28;20153;-72
2022/06/16 05:03:18;;;;;;;3.67;2.03;;;;;;;30.36;22.85;102258.50;5096782;28;20122;-72
2022/06/16 05:05:48;;;;;;;3.78;2.08;;;;;;;31.61;22.10;102270.88;5096732;28;20015;-72
2022/06/16 05:08:15;;;;;;;2.97;1.70;;;;;;;32.00;21.99;102265.16;5096681;28;20162;-72
2022/06/16 05:10:40;;;;;;;4.85;1.50;;;;;;;32.38;21.47;102270.22;5111269;27;20034;-72
2022/06/16 05:13:06;;;;;;;4.90;2.00;;;;;;;32.58;20.32;102260.50;5112390;27;20024;-72
2022/06/16 05:15:32;;;;;;;7.55;2.00;;;;;;;31.56;20.60;102273.91;5113872;27;20026;-72
2022/06/16 05:17:57;;;;;;;2.38;1.85;;;;;;;31.50;20.84;102282.47;5111709;28;20491;-72
2022/06/16 05:20:22;;;;;;;5.80;1.60;;;;;;;30.45;21.14;102290.22;5097103;28;20026;-72
2022/06/16 05:22:48;;;;;;;4.00;1.58;;;;;;;30.22;21.08;102292.69;5114210;28;20448;-72
2022/06/16 05:25:14;;;;;;;3.78;1.45;;;;;;;28.71;22.59;102297.44;5096107;28;20040;-72
2022/06/16 05:27:39;;;;;;;3.45;1.67;;;;;;;29.50;22.83;102298.53;5095746;28;20042;-72
2022/06/16 05:30:06;;;;;;;2.88;2.17;;;;;;;30.05;23.13;102291.22;5095039;28;20027;-72
2022/06/16 05:32:31;;;;;;;2.33;1.45;;;;;;;29.36;22.60;102290.53;5093657;28;20024;-72
2022/06/16 05:34:57;;;;;;;2.92;1.27;;;;;;;28.81;23.06;102295.88;5093202;28;20069;-72
2022/06/16 05:37:22;;;;;;;5.93;1.98;;;;;;;28.36;24.00;102290.63;5093137;28;20097;-72
2022/06/16 05:39:49;;;;;;;1.75;1.40;;;;;;;27.02;25.65;102293.16;5095545;28;20032;-72
2022/06/16 05:42:15;;;;;;;3.08;1.45;;;;;;;25.83;27.46;102302.19;5093416;28;20107;-72
2022/06/16 05:44:41;;;;;;;3.05;1.55;;;;;;;26.80;26.39;102299.75;5113221;27;20040;-72
2022/06/16 05:47:07;;;;;;;3.63;1.75;;;;;;;27.02;26.29;102293.16;5097119;28;20028;-72
2022/06/16 05:49:33;;;;;;;2.88;1.42;;;;;;;26.23;27.35;102287.59;5092936;28;20026;-72
2022/06/16 05:51:59;;;;;;;1.83;1.50;;;;;;;25.68;27.33;102293.16;5099751;28;20103;-72
2022/06/16 05:54:25;;;;;;;3.28;1.70;;;;;;;25.55;27.95;102292.91;5096912;28;20024;-72
2022/06/16 05:56:50;;;;;;;1.85;1.75;;;;;;;26.05;27.34;102296.63;5093739;28;20037;-72
2022/06/16 05:59:16;;;;;;;3.30;1.60;;;;;;;26.48;26.16;102294.31;5093233;28;20028;-72
2022/06/16 06:01:41;;;;;;;3.08;1.92;;;;;;;26.74;26.41;102294.72;5092091;28;20024;-72
2022/06/16 06:04:07;;;;;;;3.42;1.30;;;;;;;27.20;26.73;102297.50;5093026;28;20154;-72
2022/06/16 06:06:32;;;;;;;2.40;1.30;;;;;;;27.25;25.78;102306.13;5092315;28;20058;-72
2022/06/16 06:17:18;;;;;;;1.85;1.23;;;;;;;31.41;21.73;102291.31;5093078;28;20141;-72
2022/06/16 06:19:43;;;;;;;2.45;1.13;;;;;;;31.44;21.06;102291.91;5090027;28;20164;-72
2022/06/16 06:22:13;;;;;;;1.67;1.00;;;;;;;33.31;19.76;102300.59;5089725;28;20205;-72
2022/06/16 06:24:40;;;;;;;3.00;1.40;;;;;;;32.84;18.98;102300.84;5092655;28;20468;-72
2022/06/16 06:27:10;;;;;;;4.03;1.40;;;;;;;34.10;18.88;102302.88;5092128;28;20107;-72
2022/06/16 06:29:36;;;;;;;2.80;1.48;;;;;;;35.48;16.62;102298.63;5093383;28;20114;-72
2022/06/16 06:32:01;;;;;;;2.50;1.50;;;;;;;34.87;17.73;102316.91;5091576;28;20116;-72
2022/06/16 06:34:28;;;;;;;3.05;1.42;;;;;;;33.84;18.02;102315.13;5092849;28;20024;-72
2022/06/16 06:36:54;;;;;;;2.63;1.48;;;;;;;35.03;17.77;102315.47;5083656;28;20085;-72
2022/06/16 06:39:19;;;;;;;2.00;1.58;;;;;;;36.00;17.47;102304.56;5093939;28;20027;-72
2022/06/16 06:41:44;;;;;;;3.67;1.52;;;;;;;36.31;17.59;102307.06;5093949;28;20031;-71
2022/06/16 06:44:10;;;;;;;2.00;1.80;;;;;;;37.06;16.08;102311.50;5091531;28;20050;-72
2022/06/16 06:46:35;;;;;;;2.47;1.40;;;;;;;36.31;17.55;102312.50;5092127;28;20396;-72
2022/06/16 06:49:02;;;;;;;5.85;1.67;;;;;;;37.45;16.44;102315.78;5092038;28;20081;-72
2022/06/16 06:51:27;;;;;;;3.42;1.42;;;;;;;37.48;16.82;102304.53;5091608;28;20032;-72
2022/06/16 06:53:53;;;;;;;3.60;1.88;;;;;;;37.43;16.09;102317.81;5091025;28;20032;-72
2022/06/16 06:56:19;;;;;;;3.55;1.92;;;;;;;37.93;16.90;102321.78;5090759;28;20089;-72
2022/06/16 06:58:44;;;;;;;2.45;1.63;;;;;;;36.98;16.71;102320.44;5090430;28;20062;-72
2022/06/16 07:01:10;;;;;;;3.13;2.22;;;;;;;36.49;17.21;102322.56;5092934;28;20059;-72
2022/06/16 07:03:35;;;;;;;3.42;1.60;;;;;;;38.69;15.11;102326.44;5095125;28;20028;-72
2022/06/16 07:06:02;;;;;;;4.35;2.00;;;;;;;36.96;16.44;102333.38;5094939;28;20460;-72
2022/06/16 07:08:28;;;;;;;4.45;1.77;;;;;;;37.54;17.61;102336.66;5089666;28;20038;-72
2022/06/16 07:10:54;;;;;;;2.58;1.50;;;;;;;38.79;16.86;102336.38;5086107;28;20027;-72
2022/06/16 07:13:20;;;;;;;3.10;1.70;;;;;;;38.91;14.11;102335.03;5083671;28;20032;-72
2022/06/16 07:15:46;;;;;;;3.17;1.73;;;;;;;38.71;15.79;102344.56;5090630;28;20136;-72
2022/06/16 07:18:12;;;;;;;2.60;1.90;;;;;;;39.20;14.25;102339.22;5090357;28;20444;-72
2022/06/16 07:20:38;;;;;;;2.58;1.55;;;;;;;39.39;13.95;102348.09;5099540;27;20028;-72
2022/06/16 07:23:03;;;;;;;2.65;1.58;;;;;;;39.69;14.94;102352.91;5088192;28;21249;-72
2022/06/16 07:25:28;;;;;;;2.92;1.55;;;;;;;39.14;14.58;102339.84;5089160;28;20063;-72
2022/06/16 07:27:54;;;;;;;3.13;1.90;;;;;;;37.38;15.64;102358.31;5089998;28;20042;-72
2022/06/16 07:30:21;;;;;;;2.33;1.83;;;;;;;38.09;14.89;102361.97;5095794;28;20063;-72
2022/06/16 07:32:47;;;;;;;4.53;1.80;;;;;;;38.15;18.56;102358.56;5091254;28;20404;-72
2022/06/16 07:35:16;;;;;;;2.30;1.50;;;;;;;39.05;16.31;102371.78;5092509;28;20036;-72
2022/06/16 07:37:42;;;;;;;2.45;1.73;;;;;;;38.60;15.12;102375.72;5098042;28;20135;-72
2022/06/16 07:40:09;;;;;;;2.38;1.50;;;;;;;39.91;15.21;102368.78;5089358;28;20115;-72
2022/06/16 07:42:38;;;;;;;2.72;1.65;;;;;;;40.44;15.12;102371.91;5091333;27;20093;-72
2022/06/16 07:45:04;;;;;;;2.70;1.63;;;;;;;41.04;12.87;102368.56;5043801;28;20498;-72
2022/06/16 07:47:29;;;;;;;3.38;1.65;;;;;;;36.72;16.25;102371.19;5089783;28;20113;-72
2022/06/16 07:49:55;;;;;;;4.22;1.25;;;;;;;39.18;16.36;102363.97;5092605;28;20437;-72
2022/06/16 07:52:20;;;;;;;1.55;1.20;;;;;;;38.68;13.62;102373.84;5091810;28;20066;-72
2022/06/16 07:54:46;;;;;;;1.98;1.23;;;;;;;39.77;13.68;102378.53;5099821;28;20024;-72
2022/06/16 07:57:12;;;;;;;4.60;1.75;;;;;;;39.46;15.65;102376.47;5092362;28;20385;-72
2022/06/16 07:59:38;;;;;;;2.25;1.83;;;;;;;40.16;13.57;102384.16;5086827;28;20538;-72
2022/06/16 08:02:03;;;;;;;2.28;1.48;;;;;;;40.53;13.27;102392.75;5106217;27;20024;-73
2022/06/16 08:04:29;;;;;;;3.88;1.70;;;;;;;39.35;14.23;102392.19;5092152;28;20110;-72
2022/06/16 08:07:00;;;;;;;2.38;1.80;;;;;;;38.61;15.09;102389.19;5089089;28;20035;-72
2022/06/16 08:09:26;;;;;;;5.10;1.75;;;;;;;38.67;14.47;102393.16;5089038;28;20039;-73
2022/06/16 08:12:04;;;;;;;4.78;1.50;;;;;;;39.59;14.82;102382.28;5091329;28;20059;-72
2022/06/16 08:14:36;;;;;;;2.50;1.63;;;;;;;40.68;14.65;102388.25;5092301;28;20108;-72
2022/06/16 08:17:03;;;;;;;3.92;2.30;;;;;;;41.11;13.96;102382.38;5091405;28;20106;-72
2022/06/16 08:19:28;;;;;;;2.60;1.70;;;;;;;42.07;14.23;102386.56;5087659;28;20027;-72
2022/06/16 08:21:54;;;;;;;4.25;1.63;;;;;;;41.69;13.79;102379.22;5092496;28;20394;-72
2022/06/16 08:24:19;;;;;;;2.63;1.63;;;;;;;40.99;14.60;102379.19;5090176;28;20032;-72
2022/06/16 08:26:46;;;;;;;4.45;1.67;;;;;;;42.13;12.95;102374.84;5092485;28;20426;-72
2022/06/16 08:29:14;;;;;;;5.28;1.70;;;;;;;40.60;14.24;102380.09;5087823;28;20035;-72
2022/06/16 08:31:39;;;;;;;3.05;1.52;;;;;;;42.21;13.24;102381.09;5092339;28;20505;-73
2022/06/16 08:34:05;;;;;;;6.07;1.65;;;;;;;41.30;12.11;102375.56;5090280;28;20028;-73
2022/06/16 08:36:31;;;;;;;5.18;1.70;;;;;;;40.59;14.44;102382.97;5085608;28;20495;-72
2022/06/16 08:38:57;;;;;;;3.03;2.10;;;;;;;40.10;13.48;102379.34;5087396;28;20195;-72
2022/06/16 08:41:28;;;;;;;3.55;1.38;;;;;;;41.75;14.70;102377.59;5090052;28;20469;-72
2022/06/16 08:44:09;;;;;;;2.97;1.73;;;;;;;38.51;17.12;102383.00;5086403;28;20032;-71
2022/06/16 08:46:41;;;;;;;2.28;1.75;;;;;;;41.11;14.64;102381.50;5097027;28;20024;-72
2022/06/16 08:49:23;;;;;;;3.58;1.92;;;;;;;39.93;13.27;102394.94;5088217;28;20140;-72
2022/06/16 08:52:14;;;;;;;6.82;2.00;;;;;;;39.52;14.79;102389.47;5090030;28;20036;-72
2022/06/16 08:54:48;;;;;;;3.55;1.92;;;;;;;41.07;14.53;102397.50;5103606;28;20147;-72
2022/06/16 08:57:51;;;;;;;2.85;1.70;;;;;;;41.46;13.26;102390.22;5088358;28;20026;-72
2022/06/16 09:00:31;;;;;;;15.45;2.90;;;;;;;42.82;11.84;102395.66;5106124;28;20036;-72
2022/06/16 09:03:05;;;;;;;5.55;1.52;;;;;;;43.44;12.83;102385.09;5090695;28;20015;-72
2022/06/16 09:05:40;;;;;;;5.00;1.70;;;;;;;43.10;12.44;102397.66;5091636;28;20117;-72
2022/06/16 09:08:22;;;;;;;4.05;1.83;;;;;;;42.76;13.51;102401.91;5086603;28;20024;-72
2022/06/16 09:10:55;;;;;;;;;;;;;;;42.78;13.45;102399.81;5089927;28;20035;-73
2022/06/16 09:13:51;;;;;;;2.75;1.63;;;;;;;40.95;13.57;102394.31;5076360;28;19918;-72
2022/06/16 09:16:59;;;;;;;2.80;1.60;;;;;;;41.02;13.56;102395.28;5117945;28;20028;-72
2022/06/16 09:20:16;;;;;;;1.92;1.50;;;;;;;42.77;13.87;102392.63;5069378;28;20040;-72
2022/06/16 09:22:54;;;;;;;5.75;1.58;;;;;;;42.48;12.95;102399.84;5046981;28;20124;-72
2022/06/16 09:25:32;;;;;;;2.70;1.60;;;;;;;43.20;12.03;102392.72;5102762;28;20047;-72
2022/06/16 09:28:06;;;;;;;3.67;1.70;;;;;;;43.78;11.40;102392.59;5109756;28;20027;-72
2022/06/16 09:30:38;;;;;;;2.95;1.77;;;;;;;43.04;12.20;102389.13;5111314;28;20022;-72
2022/06/16 09:33:22;;;;;;;2.55;2.03;;;;;;;43.83;12.90;102386.47;5113715;28;20471;-72
2022/06/16 09:35:53;;;;;;;2.75;1.52;;;;;;;43.93;12.84;102394.41;5114624;28;20019;-72
2022/06/16 09:38:39;;;;;;;3.85;1.95;;;;;;;43.62;12.85;102390.13;5115852;28;20047;-72
2022/06/16 09:44:06;;;;;;;4.20;1.73;;;;;;;42.57;12.49;102403.31;5115831;28;20066;-72
2022/06/16 09:46:36;;;;;;;2.58;1.65;;;;;;;40.73;15.66;102400.56;5114153;28;20016;-72
2022/06/16 09:49:17;;;;;;;2.90;1.58;;;;;;;43.65;12.02;102401.59;5113586;28;20027;-72
2022/06/16 09:51:58;;;;;;;2.92;1.70;;;;;;;42.93;12.59;102403.38;5115436;28;20045;-72
2022/06/16 09:54:43;;;;;;;2.90;1.80;;;;;;;44.42;11.86;102398.09;5114877;28;20023;-72
2022/06/16 09:57:17;;;;;;;2.55;1.90;;;;;;;42.16;12.76;102401.91;5115682;28;20080;-72
2022/06/16 09:59:50;;;;;;;3.17;1.73;;;;;;;42.73;12.00;102397.63;5114035;28;20478;-72
2022/06/16 10:02:21;;;;;;;1.80;1.65;;;;;;;40.97;13.62;102397.72;5114592;28;20527;-72
2022/06/16 10:04:52;;;;;;;2.83;1.67;;;;;;;41.21;12.85;102398.59;5115519;28;20023;-72
2022/06/16 10:07:41;;;;;;;2.63;1.40;;;;;;;41.36;14.06;102402.28;5113984;28;20490;-72
2022/06/16 10:10:22;;;;;;;3.88;1.70;;;;;;;42.26;13.98;102416.22;5114451;28;20107;-72
2022/06/16 10:13:02;;;;;;;7.05;2.28;;;;;;;42.17;12.65;102420.09;5115247;28;20426;-72
2022/06/16 10:15:46;;;;;;;2.40;1.63;;;;;;;40.43;15.13;102423.06;5114591;28;20107;-72
2022/06/16 10:18:11;;;;;;;3.15;1.60;;;;;;;41.98;12.85;102424.25;5113899;28;20100;-72
2022/06/16 10:20:39;;;;;;;2.58;1.63;;;;;;;41.54;14.06;102417.56;5113644;28;20023;-72
2022/06/16 10:23:11;;;;;;;3.88;1.90;;;;;;;37.78;16.51;102422.44;5114205;28;20059;-72
2022/06/16 10:25:45;;;;;;;4.30;1.77;;;;;;;39.43;16.08;102415.09;5113762;28;20032;-72
2022/06/16 10:28:29;;;;;;;2.85;1.88;;;;;;;39.51;15.60;102418.66;5114658;28;20038;-72
2022/06/16 10:30:57;;;;;;;6.55;1.85;;;;;;;41.24;13.94;102425.63;5112877;28;20118;-72
2022/06/16 10:33:29;;;;;;;2.50;1.80;;;;;;;42.47;13.44;102420.09;5114911;27;20084;-72
2022/06/16 10:35:59;;;;;;;;;;;;;;;41.75;13.27;102416.03;5113913;28;20402;-72
2022/06/16 10:38:34;;;;;;;3.85;1.90;;;;;;;42.07;13.99;102419.50;5113863;28;20298;-72
2022/06/16 10:41:04;;;;;;;4.15;1.90;;;;;;;41.69;14.30;102412.97;5113455;28;20456;-72
2022/06/16 10:43:35;;;;;;;1.55;1.30;;;;;;;42.52;14.39;102420.38;5112370;28;20538;-72
2022/06/16 10:46:14;;;;;;;2.25;1.30;;;;;;;43.34;13.83;102416.53;5114501;28;20073;-72
2022/06/16 10:48:49;;;;;;;3.97;2.30;;;;;;;42.11;13.31;102424.41;5113230;28;20199;-72
2022/06/16 10:51:18;;;;;;;7.10;1.92;;;;;;;41.05;13.84;102429.69;5113796;28;20171;-72
2022/06/16 10:53:47;;;;;;;2.15;1.90;;;;;;;39.50;14.55;102418.84;5113199;28;20024;-72
2022/06/16 10:56:21;;;;;;;3.95;2.28;;;;;;;39.31;14.14;102411.81;5113127;28;20028;-72
2022/06/16 10:59:18;;;;;;;2.55;1.90;;;;;;;40.54;15.14;102413.66;5112028;28;20123;-72
2022/06/16 11:01:53;;;;;;;5.03;1.58;;;;;;;41.58;15.90;102410.69;5114308;28;20505;-72
2022/06/16 11:04:25;;;;;;;2.17;1.50;;;;;;;39.82;16.12;102407.09;5113749;28;20020;-73
2022/06/16 11:06:53;;;;;;;6.05;2.13;;;;;;;39.88;14.51;102418.38;5113000;28;20051;-72
2022/06/16 11:09:23;;;;;;;2.00;1.50;;;;;;;41.16;14.66;102417.47;5112907;28;20471;-72
2022/06/16 11:11:54;;;;;;;2.63;2.22;;;;;;;41.32;13.03;102417.34;5113233;28;20023;-72
2022/06/16 11:14:39;;;;;;;4.53;1.52;;;;;;;41.53;12.85;102411.22;5114142;28;20046;-72
2022/06/16 11:17:18;;;;;;;5.97;2.35;;;;;;;40.60;15.24;102412.97;5112603;28;20063;-72
2022/06/16 11:19:48;;;;;;;2.60;1.88;;;;;;;40.22;15.51;102404.50;5111816;28;20068;-72
2022/06/16 11:22:30;;;;;;;2.30;1.85;;;;;;;41.37;13.34;102404.00;5112520;28;20058;-72
2022/06/16 11:25:06;;;;;;;3.25;1.50;;;;;;;42.56;13.93;102402.47;5112461;28;20027;-72
2022/06/16 11:27:47;;;;;;;3.33;2.28;;;;;;;41.44;13.01;102404.13;5113096;28;20085;-72
2022/06/16 11:30:29;;;;;;;2.47;1.77;;;;;;;38.81;16.10;102388.97;5112370;28;20122;-72
2022/06/16 11:32:55;;;;;;;3.33;1.50;;;;;;;39.95;16.68;102392.03;5112760;28;20038;-72
2022/06/16 11:35:32;;;;;;;1.98;1.63;;;;;;;39.85;14.69;102389.47;5112257;28;20502;-72
2022/06/16 11:38:17;;;;;;;2.63;1.40;;;;;;;41.37;14.87;102404.00;5112159;28;20040;-72
2022/06/16 11:40:50;;;;;;;4.80;1.83;;;;;;;39.27;14.80;102403.13;5111458;28;20036;-72
2022/06/16 11:43:33;;;;;;;3.78;1.50;;;;;;;39.11;15.49;102400.31;5113274;28;20032;-72
2022/06/16 11:46:06;;;;;;;2.70;1.50;;;;;;;38.84;16.40;102399.56;5112121;28;20034;-72
2022/06/16 11:48:59;;;;;;;2.05;1.65;;;;;;;39.93;14.72;102414.09;5111453;28;20035;-72
2022/06/16 11:51:40;;;;;;;5.90;1.70;;;;;;;38.56;16.35;102415.31;5111706;28;20059;-72
2022/06/16 11:54:06;;;;;;;2.83;2.00;;;;;;;37.98;16.35;102421.22;5110706;28;20019;-72
2022/06/16 11:56:43;;;;;;;3.85;2.15;;;;;;;38.71;15.50;102432.81;5113240;28;20026;-73
2022/06/16 11:59:39;;;;;;;3.72;2.17;;;;;;;38.96;16.68;102424.69;5111753;28;20463;-72
2022/06/16 12:02:04;;;;;;;3.33;1.83;;;;;;;39.48;15.59;102424.50;5112205;28;20023;-72